Terminal Aerodrome Forecast
Issued by NWS

Home | Current Version | Previous Version | Text Only | Print | Product List | Glossary On
Versions: 1 2 3 4 5 6 7 8 9 10 11
000
FTUS43 KJKL 250500 RRA
TAFSME
TAF
KSME 250539Z 2506/2606 26010KT P6SM SCT025 OVC060
     FM250800 25006KT P6SM BKN025 OVC035
     FM251800 23005KT P6SM SCT025=

USA.gov is the U.S. government's official web portal to all federal, state and local government web resources and services.